createdAt,value
2023-04-02T00:01:22.942Z,100426.19
2023-04-02T00:03:54.172Z,100429.91
2023-04-02T00:06:45.337Z,100422.38
2023-04-02T00:09:15.008Z,100422.47
2023-04-02T00:11:44.068Z,100429.50
2023-04-02T00:14:22.427Z,100425.69
2023-04-02T00:16:48.940Z,100436.28
2023-04-02T00:19:21.849Z,100434.84
2023-04-02T00:21:49.218Z,100450.03
2023-04-02T00:24:17.741Z,100446.19
2023-04-02T00:26:46.681Z,100447.84
2023-04-02T00:29:15.352Z,100453.22
2023-04-02T00:31:44.470Z,100457.34
2023-04-02T00:34:18.658Z,100459.16
2023-04-02T00:36:46.617Z,100469.94
2023-04-02T00:39:19.043Z,100468.03
2023-04-02T00:41:46.870Z,100465.28
2023-04-02T00:44:15.057Z,100467.22
2023-04-02T00:46:49.578Z,100470.59
2023-04-02T00:49:22.905Z,100469.19
2023-04-02T00:51:56.602Z,100480.53
2023-04-02T00:54:25.664Z,100465.38
2023-04-02T00:56:54.980Z,100469.41
2023-04-02T00:59:34.042Z,100469.56
2023-04-02T01:02:22.382Z,100466.13
2023-04-02T01:04:54.512Z,100472.47
2023-04-02T01:07:45.491Z,100469.19
2023-04-02T01:10:17.576Z,100476.03
2023-04-02T01:13:17.922Z,100478.13
2023-04-02T01:15:53.831Z,100481.91
2023-04-02T01:18:39.777Z,100481.28
2023-04-02T01:21:30.926Z,100482.44
2023-04-02T01:24:06.341Z,100486.69
2023-04-02T01:26:53.880Z,100486.41
2023-04-02T01:29:30.183Z,100494.09
2023-04-02T01:32:01.634Z,100499.00
2023-04-02T01:34:28.888Z,100490.75
2023-04-02T01:37:06.583Z,100501.59
2023-04-02T01:40:06.634Z,100505.59
2023-04-02T01:43:04.068Z,100502.66
2023-04-02T01:45:31.576Z,100516.13
2023-04-02T01:47:58.588Z,100513.72
2023-04-02T01:50:37.001Z,100525.19
2023-04-02T01:53:07.134Z,100518.94
2023-04-02T01:55:44.217Z,100535.38
2023-04-02T01:58:12.124Z,100533.63
2023-04-02T02:00:46.098Z,100534.59
2023-04-02T02:03:12.955Z,100537.59
2023-04-02T02:05:39.549Z,100543.84
2023-04-02T02:08:08.498Z,100539.72
2023-04-02T02:10:36.841Z,100550.41
2023-04-02T02:13:03.719Z,100549.69
2023-04-02T02:15:34.254Z,100547.34
2023-04-02T02:18:04.523Z,100556.22
2023-04-02T02:20:32.321Z,100550.53
2023-04-02T02:23:00.194Z,100558.47
2023-04-02T02:25:33.007Z,100568.59
2023-04-02T02:28:18.723Z,100569.56
2023-04-02T02:30:47.927Z,100570.47
2023-04-02T02:33:39.550Z,100575.88
2023-04-02T02:36:16.150Z,100571.53
2023-04-02T02:38:49.333Z,100571.94
2023-04-02T02:41:45.268Z,100570.91
2023-04-02T02:44:18.144Z,100578.34
2023-04-02T02:46:48.552Z,100574.50
2023-04-02T02:49:22.604Z,100575.34
2023-04-02T02:52:16.675Z,100581.81
2023-04-02T02:54:56.818Z,100573.84
2023-04-02T02:57:28.721Z,100598.34
2023-04-02T02:59:57.494Z,100592.81
2023-04-02T03:02:25.341Z,100589.81
2023-04-02T03:04:53.873Z,100599.09
2023-04-02T03:07:25.580Z,100601.03
2023-04-02T03:09:59.238Z,100612.69
2023-04-02T03:12:41.586Z,100602.59
2023-04-02T03:15:12.621Z,100609.25
2023-04-02T03:17:54.811Z,100608.06
2023-04-02T03:21:01.158Z,100614.69
2023-04-02T03:23:30.815Z,100622.69
2023-04-02T03:26:08.094Z,100616.50
2023-04-02T03:28:39.684Z,100632.72
2023-04-02T03:31:09.157Z,100640.16
2023-04-02T03:33:55.820Z,100637.56
2023-04-02T03:36:25.737Z,100644.06
2023-04-02T03:39:11.752Z,100636.97
2023-04-02T03:41:42.868Z,100647.09
2023-04-02T03:44:25.556Z,100651.44
2023-04-02T03:46:59.295Z,100658.56
2023-04-02T03:49:38.856Z,100658.44
2023-04-02T03:52:13.781Z,100663.09
2023-04-02T03:54:53.967Z,100658.22
2023-04-02T03:57:36.475Z,100668.13
2023-04-02T04:00:08.639Z,100679.00
2023-04-02T04:02:41.379Z,100675.13
2023-04-02T04:05:19.924Z,100695.13
2023-04-02T04:07:46.686Z,100691.75
2023-04-02T04:10:24.866Z,100696.00
2023-04-02T04:12:52.647Z,100711.31
2023-04-02T04:15:24.901Z,100714.16
2023-04-02T04:18:04.374Z,100713.00
2023-04-02T04:20:45.880Z,100722.13
2023-04-02T04:23:25.776Z,100724.31
2023-04-02T04:26:31.078Z,100733.78
2023-04-02T04:29:38.277Z,100739.03
2023-04-02T04:32:27.525Z,100740.63
2023-04-02T04:35:23.940Z,100729.97
2023-04-02T04:37:58.637Z,100736.38
2023-04-02T04:40:28.502Z,100745.78
2023-04-02T04:42:59.251Z,100743.97
2023-04-02T04:45:54.582Z,100753.53
2023-04-02T04:48:28.159Z,100753.78
2023-04-02T04:50:56.024Z,100754.84
2023-04-02T04:53:25.125Z,100757.31
2023-04-02T04:56:16.068Z,100774.69
2023-04-02T04:59:06.779Z,100765.72
2023-04-02T05:01:47.485Z,100778.72
2023-04-02T05:04:36.123Z,100776.06
2023-04-02T05:07:10.599Z,100780.78
2023-04-02T05:09:44.270Z,100781.31
2023-04-02T05:12:17.130Z,100785.81
2023-04-02T05:14:52.883Z,100792.81
2023-04-02T05:17:21.126Z,100792.28
2023-04-02T05:19:52.026Z,100792.81
2023-04-02T05:22:40.239Z,100794.09
2023-04-02T05:25:19.009Z,100794.41
2023-04-02T05:28:01.083Z,100798.78
2023-04-02T05:30:27.543Z,100810.38
2023-04-02T05:33:05.188Z,100818.47
2023-04-02T05:35:34.941Z,100822.34
2023-04-02T05:38:02.363Z,100823.22
2023-04-02T05:40:36.334Z,100830.69
2023-04-02T05:43:03.860Z,100833.03
2023-04-02T05:45:39.064Z,100836.44
2023-04-02T05:48:18.873Z,100838.50
2023-04-02T05:50:49.566Z,100844.34
2023-04-02T05:53:21.509Z,100846.97
2023-04-02T05:56:00.456Z,100856.56
2023-04-02T05:58:48.480Z,100866.31
2023-04-02T06:01:37.655Z,100864.94
2023-04-02T06:04:16.292Z,100863.13
2023-04-02T06:06:46.986Z,100868.38
2023-04-02T06:09:19.901Z,100872.00
2023-04-02T06:11:52.176Z,100877.44
2023-04-02T06:14:18.777Z,100885.66
2023-04-02T06:16:46.139Z,100873.50
2023-04-02T06:19:29.475Z,100888.78
2023-04-02T06:22:00.674Z,100897.84
2023-04-02T06:24:29.239Z,100897.59
2023-04-02T06:27:02.952Z,100899.16
2023-04-02T06:29:39.790Z,100900.25
2023-04-02T06:32:08.383Z,100894.50
2023-04-02T06:34:38.261Z,100919.16
2023-04-02T06:37:21.501Z,100887.00
2023-04-02T06:39:48.714Z,100906.22
2023-04-02T06:42:21.756Z,100926.66
2023-04-02T06:44:48.513Z,100934.97
2023-04-02T06:47:42.858Z,100929.25
2023-04-02T06:50:40.502Z,100937.94
2023-04-02T06:53:12.942Z,100947.97
2023-04-02T06:55:56.098Z,100952.41
2023-04-02T06:58:22.696Z,100961.72
2023-04-02T07:00:50.773Z,100958.69
2023-04-02T07:03:26.178Z,100964.31
2023-04-02T07:05:52.968Z,100966.16
2023-04-02T07:08:19.750Z,100965.63
2023-04-02T07:10:46.699Z,100962.13
2023-04-02T07:13:16.535Z,100974.50
2023-04-02T07:15:45.139Z,100977.31
2023-04-02T07:18:23.141Z,100981.00
2023-04-02T07:20:50.117Z,100976.81
2023-04-02T07:23:17.522Z,100978.75
2023-04-02T07:25:44.346Z,100986.50
2023-04-02T07:28:12.290Z,100988.94
2023-04-02T07:30:38.832Z,101003.25
2023-04-02T07:33:05.652Z,101000.63
2023-04-02T07:35:32.451Z,101007.34
2023-04-02T07:37:59.072Z,101013.31
2023-04-02T07:40:25.792Z,101013.22
2023-04-02T07:42:52.773Z,101019.44
2023-04-02T07:45:19.371Z,101017.44
2023-04-02T07:47:51.060Z,101027.34
2023-04-02T07:50:18.050Z,101024.75
2023-04-02T07:52:44.639Z,101032.28
2023-04-02T07:55:12.885Z,101041.66
2023-04-02T07:57:54.548Z,101050.56
2023-04-02T08:00:22.587Z,101055.78
2023-04-02T08:02:49.295Z,101056.50
2023-04-02T08:05:15.875Z,101070.09
2023-04-02T08:07:42.648Z,101067.69
2023-04-02T08:10:11.467Z,101069.19
2023-04-02T08:12:38.279Z,101068.50
2023-04-02T08:15:06.968Z,101077.28
2023-04-02T08:17:37.658Z,101087.31
2023-04-02T08:20:09.062Z,101077.56
2023-04-02T08:22:36.911Z,101088.66
2023-04-02T08:25:10.704Z,101093.63
2023-04-02T08:27:37.396Z,101089.78
2023-04-02T08:30:04.522Z,101097.31
2023-04-02T08:32:31.190Z,101105.00
2023-04-02T08:34:57.783Z,101104.53
2023-04-02T08:37:24.630Z,101102.22
2023-04-02T08:39:51.091Z,101109.50
2023-04-02T08:42:37.696Z,101106.91
2023-04-02T08:45:37.149Z,101116.50
2023-04-02T08:48:05.514Z,101122.72
2023-04-02T08:50:39.990Z,101127.63
2023-04-02T08:53:34.296Z,101130.13
2023-04-02T08:56:17.840Z,101130.41
2023-04-02T08:58:50.384Z,101133.13
2023-04-02T09:01:32.789Z,101146.75
2023-04-02T09:04:05.578Z,101141.31
2023-04-02T09:06:34.758Z,101138.13
2023-04-02T09:09:01.453Z,101147.72
2023-04-02T09:11:54.055Z,101154.53
2023-04-02T09:14:27.477Z,101162.72
2023-04-02T09:16:56.464Z,101160.03
2023-04-02T09:19:25.821Z,101160.59
2023-04-02T09:22:06.518Z,101169.88
2023-04-02T09:24:33.526Z,101166.78
2023-04-02T09:27:00.102Z,101186.41
2023-04-02T09:29:38.983Z,101181.75
2023-04-02T09:32:08.608Z,101187.50
2023-04-02T09:34:36.557Z,101174.13
2023-04-02T09:37:15.110Z,101185.44
2023-04-02T09:39:41.597Z,101197.44
2023-04-02T09:42:11.910Z,101216.25
2023-04-02T09:44:39.925Z,101213.59
2023-04-02T09:47:23.971Z,101214.53
2023-04-02T09:49:51.800Z,101218.19
2023-04-02T09:52:27.873Z,101234.75
2023-04-02T09:55:22.525Z,101229.09
2023-04-02T09:57:51.990Z,101234.16
2023-04-02T10:00:39.704Z,101238.00
2023-04-02T10:03:28.564Z,101239.25
2023-04-02T10:06:24.164Z,101244.97
2023-04-02T10:08:53.411Z,101259.50
2023-04-02T10:11:24.277Z,101255.63
2023-04-02T10:14:04.945Z,101263.16
2023-04-02T10:17:30.315Z,101277.41
2023-04-02T10:20:02.625Z,101270.63
2023-04-02T10:22:29.374Z,101278.22
2023-04-02T10:24:58.541Z,101284.38
2023-04-02T10:27:48.980Z,101282.41
2023-04-02T10:30:26.224Z,101297.09
2023-04-02T10:33:01.361Z,101310.28
2023-04-02T10:35:41.798Z,101294.00
2023-04-02T10:38:32.123Z,101312.25
2023-04-02T10:41:07.643Z,101305.78
2023-04-02T10:44:01.043Z,101315.34
2023-04-02T10:46:49.842Z,101322.25
2023-04-02T10:49:48.905Z,101314.28
2023-04-02T10:52:31.344Z,101327.47
2023-04-02T10:55:10.292Z,101330.16
2023-04-02T10:57:40.463Z,101341.31
2023-04-02T11:00:09.236Z,101343.78
2023-04-02T11:03:03.155Z,101338.53
2023-04-02T11:05:45.599Z,101358.03
2023-04-02T11:08:23.184Z,101364.28
2023-04-02T11:10:54.738Z,101354.84
2023-04-02T11:13:49.423Z,101363.50
2023-04-02T11:16:16.200Z,101370.53
2023-04-02T11:18:44.787Z,101381.78
2023-04-02T11:21:29.781Z,101380.00
2023-04-02T11:23:59.048Z,101387.00
2023-04-02T11:26:41.464Z,101386.44
2023-04-02T11:29:21.694Z,101376.66
2023-04-02T11:31:54.664Z,101389.66
2023-04-02T11:35:03.105Z,101392.28
2023-04-02T11:37:35.560Z,101389.53
2023-04-02T11:40:40.580Z,101391.97
2023-04-02T11:43:37.847Z,101393.47
2023-04-02T11:46:16.637Z,101396.03
2023-04-02T11:48:43.368Z,101402.47
2023-04-02T11:51:24.529Z,101410.00
2023-04-02T11:53:53.902Z,101402.03
2023-04-02T11:56:33.736Z,101418.19
2023-04-02T11:59:00.289Z,101399.75
2023-04-02T12:01:48.350Z,101408.34
2023-04-02T12:04:46.017Z,101419.84
2023-04-02T12:07:46.751Z,101420.75
2023-04-02T12:10:21.917Z,101438.13
2023-04-02T12:12:49.308Z,101441.78
2023-04-02T12:15:41.555Z,101448.84
2023-04-02T12:18:16.943Z,101448.56
2023-04-02T12:20:49.069Z,101448.38
2023-04-02T12:23:19.177Z,101457.69
2023-04-02T12:25:54.319Z,101455.97
2023-04-02T12:28:22.332Z,101467.63
2023-04-02T12:30:50.614Z,101455.22
2023-04-02T12:33:20.164Z,101463.00
2023-04-02T12:35:47.077Z,101463.34
2023-04-02T12:38:22.327Z,101476.19
2023-04-02T12:41:21.490Z,101475.47
2023-04-02T12:43:57.316Z,101481.72
2023-04-02T12:46:26.044Z,101486.25
2023-04-02T12:48:54.370Z,101484.97
2023-04-02T12:51:21.276Z,101481.50
2023-04-02T12:53:52.528Z,101489.66
2023-04-02T12:56:21.585Z,101489.03
2023-04-02T12:58:59.287Z,101493.19
2023-04-02T13:01:28.312Z,101492.78
2023-04-02T13:04:12.452Z,101501.72
2023-04-02T13:06:42.435Z,101506.91
2023-04-02T13:09:30.939Z,101511.94
2023-04-02T13:11:58.088Z,101504.34
2023-04-02T13:14:24.870Z,101502.53
2023-04-02T13:16:51.490Z,101501.25
2023-04-02T13:19:17.924Z,101509.94
2023-04-02T13:21:46.094Z,101523.25
2023-04-02T13:24:27.696Z,101518.41
2023-04-02T13:26:56.642Z,101522.09
2023-04-02T13:29:28.451Z,101522.19
2023-04-02T13:32:00.982Z,101530.25
2023-04-02T13:34:28.363Z,101531.41
2023-04-02T13:36:55.089Z,101537.44
2023-04-02T13:39:21.846Z,101531.38
2023-04-02T13:41:51.563Z,101532.75
2023-04-02T13:44:25.940Z,101544.47
2023-04-02T13:46:53.717Z,101547.81
2023-04-02T13:49:21.037Z,101548.00
2023-04-02T13:51:52.861Z,101552.94
2023-04-02T13:54:27.353Z,101558.47
2023-04-02T13:56:55.948Z,101573.84
2023-04-02T13:59:22.632Z,101572.91
2023-04-02T14:01:50.232Z,101575.88
2023-04-02T14:04:22.288Z,101567.47
2023-04-02T14:06:49.388Z,101580.25
2023-04-02T14:09:36.918Z,101574.72
2023-04-02T14:12:41.843Z,101598.31
2023-04-02T14:15:14.331Z,101587.91
2023-04-02T14:18:08.359Z,101590.97
2023-04-02T14:21:13.914Z,101596.56
2023-04-02T14:23:52.634Z,101599.22
2023-04-02T14:26:43.475Z,101603.28
2023-04-02T14:29:53.991Z,101601.41
2023-04-02T14:32:27.253Z,101599.75
2023-04-02T14:35:15.773Z,101608.41
2023-04-02T14:38:08.612Z,101597.25
2023-04-02T14:41:01.243Z,101612.63
2023-04-02T14:43:53.155Z,101611.66
2023-04-02T14:46:19.954Z,101621.03
2023-04-02T14:48:47.763Z,101612.44
2023-04-02T14:51:24.876Z,101624.84
2023-04-02T14:54:14.428Z,101621.56
2023-04-02T14:56:48.083Z,101632.03
2023-04-02T14:59:23.264Z,101629.28
2023-04-02T15:01:54.639Z,101631.09
2023-04-02T15:04:28.014Z,101618.94
2023-04-02T15:07:01.918Z,101633.63
2023-04-02T15:09:42.777Z,101640.38
2023-04-02T15:12:13.907Z,101643.81
2023-04-02T15:14:49.080Z,101645.97
2023-04-02T15:17:15.970Z,101651.56
2023-04-02T15:19:42.466Z,101657.72
2023-04-02T15:22:27.226Z,101658.94
2023-04-02T15:25:27.641Z,101659.22
2023-04-02T15:28:27.002Z,101665.59
2023-04-02T15:30:58.600Z,101661.13
2023-04-02T15:46:43.934Z,101689.13
2023-04-02T15:49:21.882Z,101679.00
2023-04-02T15:52:33.281Z,101690.97
2023-04-02T15:55:56.815Z,101683.91
2023-04-02T15:58:35.599Z,101697.22
2023-04-02T16:01:11.597Z,101706.09
2023-04-02T16:03:46.191Z,101701.38
2023-04-02T16:06:32.409Z,101700.63
2023-04-02T16:09:06.785Z,101708.97
2023-04-02T16:11:34.221Z,101705.03
2023-04-02T16:17:28.458Z,101717.03
2023-04-02T16:20:04.586Z,101724.56
2023-04-02T16:22:33.861Z,101722.50
2023-04-02T16:25:22.871Z,101735.00
2023-04-02T16:28:29.010Z,101735.25
2023-04-02T16:31:08.617Z,101747.50
2023-04-02T16:33:48.525Z,101740.97
2023-04-02T16:36:30.407Z,101740.44
2023-04-02T16:39:25.109Z,101741.75
2023-04-02T16:42:14.507Z,101751.63
2023-04-02T16:44:51.870Z,101757.88
2023-04-02T16:47:58.402Z,101758.38
2023-04-02T16:50:39.341Z,101758.41
2023-04-02T16:53:17.865Z,101766.97
2023-04-02T16:56:09.605Z,101771.88
2023-04-02T16:58:50.524Z,101767.41
2023-04-02T17:01:39.526Z,101789.03
2023-04-02T17:04:42.178Z,101776.53
2023-04-02T17:07:44.540Z,101789.47
2023-04-02T18:06:42.695Z,101857.41
2023-04-02T18:09:27.187Z,101861.06
2023-04-02T18:12:03.939Z,101856.41
2023-04-02T18:14:52.007Z,101867.25
2023-04-02T18:17:30.654Z,101863.13
2023-04-02T18:20:07.883Z,101871.38
2023-04-02T18:22:44.112Z,101873.72
2023-04-02T18:25:25.515Z,101868.00
2023-04-02T18:28:14.929Z,101880.50
2023-04-02T18:30:58.869Z,101882.81
2023-04-02T18:34:03.927Z,101880.69
2023-04-02T18:36:50.949Z,101894.53
2023-04-02T18:39:32.621Z,101883.84
2023-04-02T18:42:16.119Z,101898.91
2023-04-02T18:44:58.931Z,101891.81
2023-04-02T18:47:34.626Z,101905.63
2023-04-02T18:50:19.198Z,101897.84
2023-04-02T18:52:46.278Z,101905.22
2023-04-02T18:55:22.075Z,101911.25
2023-04-02T18:57:52.620Z,101912.81
2023-04-02T19:00:35.135Z,101911.81
2023-04-02T19:03:31.899Z,101918.56
2023-04-02T19:06:29.743Z,101930.19
2023-04-02T19:08:56.478Z,101924.19
2023-04-02T19:11:31.299Z,101926.22
2023-04-02T19:14:02.965Z,101923.31
2023-04-02T19:16:48.457Z,101932.25
2023-04-02T19:19:28.085Z,101940.53
2023-04-02T19:22:33.687Z,101945.88
2023-04-02T19:25:27.405Z,101942.38
2023-04-02T19:28:07.828Z,101943.88
2023-04-02T19:30:51.867Z,101957.59
2023-04-02T19:33:50.820Z,101948.78
2023-04-02T19:36:41.695Z,101943.28
2023-04-02T19:39:42.430Z,101949.00
2023-04-02T19:42:18.555Z,101944.25
2023-04-02T19:44:48.456Z,101951.78
2023-04-02T19:47:16.821Z,101950.56
2023-04-02T19:49:43.477Z,101959.94
2023-04-02T19:52:10.060Z,101954.59
2023-04-02T19:54:39.302Z,101956.69
2023-04-02T19:57:06.124Z,101965.81
2023-04-02T19:59:33.132Z,101960.31
2023-04-02T20:02:02.055Z,101957.47
2023-04-02T20:04:28.779Z,101957.63
2023-04-02T20:06:55.478Z,101968.91
2023-04-02T20:09:22.326Z,101975.50
2023-04-02T20:11:48.968Z,101975.59
2023-04-02T20:14:16.630Z,101977.16
2023-04-02T20:16:44.618Z,101989.03
2023-04-02T20:19:12.570Z,101985.69
2023-04-02T20:21:40.623Z,101993.97
2023-04-02T20:24:07.875Z,101989.31
2023-04-02T20:26:36.132Z,102003.34
2023-04-02T20:29:02.702Z,102001.34
2023-04-02T20:31:30.601Z,101997.25
2023-04-02T20:33:58.765Z,102000.38
2023-04-02T20:36:26.000Z,101998.53
2023-04-02T20:38:52.734Z,101998.22
2023-04-02T20:41:19.717Z,101994.66
2023-04-02T20:43:46.276Z,101996.81
2023-04-02T20:46:13.097Z,102006.31
2023-04-02T20:48:41.599Z,101999.09
2023-04-02T20:51:09.930Z,102000.81
2023-04-02T20:53:40.246Z,102008.53
2023-04-02T20:56:11.073Z,102005.66
2023-04-02T20:58:39.980Z,102011.28
2023-04-02T21:01:20.127Z,102004.31
2023-04-02T21:03:46.781Z,102012.75
2023-04-02T21:06:15.129Z,102002.19
2023-04-02T21:08:41.978Z,102014.09
2023-04-02T21:11:08.869Z,102017.00
2023-04-02T21:13:36.776Z,102017.59
2023-04-02T21:16:22.118Z,102024.81
2023-04-02T21:18:52.857Z,102028.03
2023-04-02T21:21:19.929Z,102024.72
2023-04-02T21:23:46.647Z,102025.09
2023-04-02T21:26:16.282Z,102040.16
2023-04-02T21:28:44.029Z,102031.09
2023-04-02T21:31:14.943Z,102027.81
2023-04-02T21:33:43.593Z,102025.97
2023-04-02T21:36:17.626Z,102027.09
2023-04-02T21:38:59.251Z,102020.03
2023-04-02T21:41:26.650Z,102034.03
2023-04-02T21:43:54.197Z,102023.88
2023-04-02T21:46:23.087Z,102030.41
2023-04-02T21:48:53.391Z,102027.28
2023-04-02T21:51:22.731Z,102042.94
2023-04-02T21:53:49.618Z,102028.84
2023-04-02T21:56:21.629Z,102041.31
2023-04-02T21:58:51.429Z,102036.22
2023-04-02T22:01:26.571Z,102042.34
2023-04-02T22:04:03.060Z,102041.97
2023-04-02T22:06:34.463Z,102042.44
2023-04-02T22:09:05.254Z,102041.41
2023-04-02T22:11:37.971Z,102049.38
2023-04-02T22:14:06.145Z,102049.75
2023-04-02T22:16:34.314Z,102052.97
2023-04-02T22:19:03.230Z,102054.47
2023-04-02T22:21:31.021Z,102049.66
2023-04-02T22:24:00.954Z,102060.75
2023-04-02T22:26:29.705Z,102057.19
2023-04-02T22:28:56.220Z,102054.84
2023-04-02T22:31:24.850Z,102056.59
2023-04-02T22:33:52.175Z,102059.00
2023-04-02T22:36:19.629Z,102054.53
2023-04-02T22:38:46.279Z,102053.16
2023-04-02T22:41:17.075Z,102050.41
2023-04-02T22:43:44.618Z,102056.56
2023-04-02T22:46:13.218Z,102064.56
2023-04-02T22:48:39.998Z,102063.00
2023-04-02T22:51:11.432Z,102052.84
2023-04-02T22:53:38.935Z,102057.94
2023-04-02T22:56:16.492Z,102057.94
2023-04-02T22:58:43.220Z,102060.84
2023-04-02T23:01:26.645Z,102064.66
2023-04-02T23:03:54.564Z,102052.31
2023-04-02T23:06:21.865Z,102064.41
2023-04-02T23:08:48.423Z,102060.22
2023-04-02T23:11:18.446Z,102062.53
2023-04-02T23:13:47.250Z,102065.25
2023-04-02T23:16:21.230Z,102060.56
2023-04-02T23:18:49.452Z,102058.19
2023-04-02T23:21:18.064Z,102055.41
2023-04-02T23:23:45.934Z,102058.28
2023-04-02T23:26:22.013Z,102061.38
2023-04-02T23:28:49.523Z,102062.59
2023-04-02T23:31:18.991Z,102067.00
2023-04-02T23:33:45.951Z,102066.44
2023-04-02T23:36:18.604Z,102066.13
2023-04-02T23:38:45.217Z,102061.63
2023-04-02T23:41:17.097Z,102063.16
2023-04-02T23:43:44.083Z,102069.66
2023-04-02T23:46:10.693Z,102068.34
2023-04-02T23:48:37.406Z,102076.47
2023-04-02T23:51:04.294Z,102079.41
2023-04-02T23:53:31.251Z,102080.78
2023-04-02T23:55:57.744Z,102087.81
2023-04-02T23:58:24.216Z,102079.88
